Lebanon, Georgia
Current Conditions -  °F | °C
As of 12:47 PM on Saturday 20 Dec 2014 (Local Time) from KRYY Reporting Station
Haze Haze  
Wind Chill: 45°   Ceiling: 500
Heat Index: 45°   Visibility: 2mi
Dew Point: 39°   Wind: 3mph
Humidity: 81%   Direction: 330°NNW
Pressure: 30.2"   Gusts: NA
Location:  34.14°N, 84.51°W
Report Text: KRYY 201747Z 33003KT 2SM BR OVC005 07/04 A3020
Loading
Personal Weather Stations






























Interactive Weather Map New forecast layout! Learn more

10-Day Weather Forecast

Advertisements
Track Severe Weather on mobile